sensor_id;sensor_type;location;lat;lon;timestamp;pressure;altitude;pressure_sealevel;temperature;humidity
62508;BME280;48556;51.972;4.624;2023-01-29T00:01:44;103016.75;;;8.26;61.93
62508;BME280;48556;51.972;4.624;2023-01-29T00:04:09;103007.34;;;8.06;62.61
62508;BME280;48556;51.972;4.624;2023-01-29T00:06:35;103003.16;;;7.85;63.21
62508;BME280;48556;51.972;4.624;2023-01-29T00:09:01;103001.88;;;7.99;62.65
62508;BME280;48556;51.972;4.624;2023-01-29T00:11:26;103008.38;;;8.38;61.35
62508;BME280;48556;51.972;4.624;2023-01-29T00:13:52;103000.72;;;8.17;62.01
62508;BME280;48556;51.972;4.624;2023-01-29T00:16:18;103000.69;;;7.90;62.69
62508;BME280;48556;51.972;4.624;2023-01-29T00:18:45;102993.88;;;7.95;62.90
62508;BME280;48556;51.972;4.624;2023-01-29T00:21:13;102992.13;;;7.95;62.95
62508;BME280;48556;51.972;4.624;2023-01-29T00:23:39;102989.78;;;8.03;62.34
62508;BME280;48556;51.972;4.624;2023-01-29T00:26:05;102971.25;;;7.97;62.29
62508;BME280;48556;51.972;4.624;2023-01-29T00:28:34;102987.66;;;7.91;62.56
62508;BME280;48556;51.972;4.624;2023-01-29T00:33:32;102988.19;;;7.55;63.27
62508;BME280;48556;51.972;4.624;2023-01-29T00:36:01;102988.97;;;7.52;63.49
62508;BME280;48556;51.972;4.624;2023-01-29T00:38:27;102987.25;;;7.79;63.06
62508;BME280;48556;51.972;4.624;2023-01-29T00:40:52;102997.41;;;7.69;62.76
62508;BME280;48556;51.972;4.624;2023-01-29T00:43:36;102984.78;;;7.83;62.65
62508;BME280;48556;51.972;4.624;2023-01-29T00:46:20;102978.53;;;7.54;63.33
62508;BME280;48556;51.972;4.624;2023-01-29T00:48:45;102968.41;;;7.39;63.78
62508;BME280;48556;51.972;4.624;2023-01-29T00:51:11;102968.25;;;7.34;64.28
62508;BME280;48556;51.972;4.624;2023-01-29T00:53:36;102961.97;;;7.53;63.79
62508;BME280;48556;51.972;4.624;2023-01-29T00:56:02;102964.16;;;7.41;63.59
62508;BME280;48556;51.972;4.624;2023-01-29T00:58:28;102959.78;;;7.42;64.71
62508;BME280;48556;51.972;4.624;2023-01-29T01:00:59;102964.16;;;7.41;64.65
62508;BME280;48556;51.972;4.624;2023-01-29T01:03:25;102957.59;;;7.54;64.52
62508;BME280;48556;51.972;4.624;2023-01-29T01:06:04;102949.31;;;7.42;64.38
62508;BME280;48556;51.972;4.624;2023-01-29T01:08:30;102944.50;;;7.80;63.51
62508;BME280;48556;51.972;4.624;2023-01-29T01:11:15;102944.41;;;7.77;63.67
62508;BME280;48556;51.972;4.624;2023-01-29T01:13:40;102951.59;;;7.57;63.68
62508;BME280;48556;51.972;4.624;2023-01-29T01:16:16;102943.34;;;7.72;64.08
62508;BME280;48556;51.972;4.624;2023-01-29T01:18:43;102947.66;;;7.44;64.79
62508;BME280;48556;51.972;4.624;2023-01-29T01:21:09;102951.31;;;7.75;63.93
62508;BME280;48556;51.972;4.624;2023-01-29T01:23:36;102953.25;;;7.80;63.88
62508;BME280;48556;51.972;4.624;2023-01-29T01:26:01;102957.56;;;7.52;64.13
62508;BME280;48556;51.972;4.624;2023-01-29T01:28:27;102955.38;;;7.41;65.48
62508;BME280;48556;51.972;4.624;2023-01-29T01:30:53;102955.00;;;7.06;66.17
62508;BME280;48556;51.972;4.624;2023-01-29T01:33:18;102963.94;;;7.11;65.66
62508;BME280;48556;51.972;4.624;2023-01-29T01:35:44;102969.31;;;7.65;64.66
62508;BME280;48556;51.972;4.624;2023-01-29T01:38:11;102983.28;;;7.40;65.16
62508;BME280;48556;51.972;4.624;2023-01-29T01:40:43;102984.16;;;7.41;65.22
62508;BME280;48556;51.972;4.624;2023-01-29T01:43:09;102972.25;;;7.49;65.35
62508;BME280;48556;51.972;4.624;2023-01-29T01:45:35;102971.25;;;7.21;66.17
62508;BME280;48556;51.972;4.624;2023-01-29T01:48:18;102983.13;;;7.35;65.57
62508;BME280;48556;51.972;4.624;2023-01-29T01:50:53;102978.88;;;7.39;65.66
62508;BME280;48556;51.972;4.624;2023-01-29T01:53:25;102978.38;;;7.25;65.42
62508;BME280;48556;51.972;4.624;2023-01-29T01:56:09;102973.34;;;7.56;64.77
62508;BME280;48556;51.972;4.624;2023-01-29T01:58:42;102971.13;;;7.94;63.78
62508;BME280;48556;51.972;4.624;2023-01-29T02:01:08;102967.91;;;7.25;64.85
62508;BME280;48556;51.972;4.624;2023-01-29T02:03:41;102960.53;;;7.63;64.02
62508;BME280;48556;51.972;4.624;2023-01-29T02:06:28;102972.78;;;7.39;64.76
62508;BME280;48556;51.972;4.624;2023-01-29T02:09:21;102963.47;;;7.73;63.92
62508;BME280;48556;51.972;4.624;2023-01-29T02:12:10;102962.31;;;7.64;64.39
62508;BME280;48556;51.972;4.624;2023-01-29T02:14:38;102964.19;;;7.94;63.39
62508;BME280;48556;51.972;4.624;2023-01-29T02:17:06;102959.16;;;7.49;64.32
62508;BME280;48556;51.972;4.624;2023-01-29T02:31:15;102953.63;;;7.40;64.83
62508;BME280;48556;51.972;4.624;2023-01-29T02:34:12;102969.22;;;7.62;64.38
62508;BME280;48556;51.972;4.624;2023-01-29T02:36:54;102958.91;;;7.41;65.43
62508;BME280;48556;51.972;4.624;2023-01-29T02:39:37;102956.53;;;7.49;65.41
62508;BME280;48556;51.972;4.624;2023-01-29T02:42:19;102961.19;;;7.32;65.70
62508;BME280;48556;51.972;4.624;2023-01-29T02:44:51;102958.66;;;7.09;66.59
62508;BME280;48556;51.972;4.624;2023-01-29T02:47:34;102957.47;;;7.25;66.76
62508;BME280;48556;51.972;4.624;2023-01-29T02:50:22;102960.75;;;7.44;65.42
62508;BME280;48556;51.972;4.624;2023-01-29T02:52:56;102944.59;;;7.57;65.35
62508;BME280;48556;51.972;4.624;2023-01-29T02:55:41;102948.50;;;7.43;65.53
62508;BME280;48556;51.972;4.624;2023-01-29T02:58:27;102953.53;;;7.38;65.57
62508;BME280;48556;51.972;4.624;2023-01-29T03:01:02;102964.59;;;7.81;64.51
62508;BME280;48556;51.972;4.624;2023-01-29T03:03:39;102946.50;;;7.61;65.21
62508;BME280;48556;51.972;4.624;2023-01-29T03:06:34;102942.91;;;7.08;66.89
62508;BME280;48556;51.972;4.624;2023-01-29T03:09:11;102948.22;;;7.11;66.77
62508;BME280;48556;51.972;4.624;2023-01-29T03:11:46;102951.78;;;7.13;66.71
62508;BME280;48556;51.972;4.624;2023-01-29T03:14:24;102944.22;;;7.46;65.21
62508;BME280;48556;51.972;4.624;2023-01-29T03:17:15;102948.06;;;7.06;67.30
62508;BME280;48556;51.972;4.624;2023-01-29T03:19:46;102933.50;;;7.14;66.99
62508;BME280;48556;51.972;4.624;2023-01-29T03:22:14;102934.91;;;7.05;68.01
62508;BME280;48556;51.972;4.624;2023-01-29T03:24:46;102943.44;;;7.23;67.04
62508;BME280;48556;51.972;4.624;2023-01-29T03:27:56;102944.19;;;7.45;66.22
62508;BME280;48556;51.972;4.624;2023-01-29T03:30:51;102943.53;;;7.26;66.88
62508;BME280;48556;51.972;4.624;2023-01-29T03:34:05;102935.69;;;7.52;66.12
62508;BME280;48556;51.972;4.624;2023-01-29T03:36:45;102931.34;;;7.27;66.73
62508;BME280;48556;51.972;4.624;2023-01-29T03:39:16;102934.09;;;7.06;67.54
62508;BME280;48556;51.972;4.624;2023-01-29T03:41:52;102929.69;;;7.05;68.07
62508;BME280;48556;51.972;4.624;2023-01-29T03:47:22;102930.53;;;7.04;68.22
62508;BME280;48556;51.972;4.624;2023-01-29T03:50:32;102926.41;;;6.86;68.40
62508;BME280;48556;51.972;4.624;2023-01-29T03:56:00;102923.19;;;7.17;67.88
62508;BME280;48556;51.972;4.624;2023-01-29T03:58:50;102916.16;;;7.16;67.68
62508;BME280;48556;51.972;4.624;2023-01-29T04:04:49;102907.78;;;6.77;68.89
62508;BME280;48556;51.972;4.624;2023-01-29T04:06:56;102904.59;;;6.86;68.65
62508;BME280;48556;51.972;4.624;2023-01-29T04:09:35;102898.34;;;6.82;68.51
62508;BME280;48556;51.972;4.624;2023-01-29T04:12:10;102904.00;;;6.93;68.43
62508;BME280;48556;51.972;4.624;2023-01-29T04:14:37;102899.41;;;6.87;68.77
62508;BME280;48556;51.972;4.624;2023-01-29T04:17:33;102897.34;;;7.03;68.46
62508;BME280;48556;51.972;4.624;2023-01-29T04:20:14;102898.91;;;6.97;68.26
62508;BME280;48556;51.972;4.624;2023-01-29T04:22:47;102891.16;;;7.25;67.58
62508;BME280;48556;51.972;4.624;2023-01-29T04:25:24;102898.47;;;7.09;67.65
62508;BME280;48556;51.972;4.624;2023-01-29T04:28:20;102893.25;;;7.09;67.56
62508;BME280;48556;51.972;4.624;2023-01-29T04:30:59;102884.00;;;7.19;67.54
62508;BME280;48556;51.972;4.624;2023-01-29T04:33:43;102884.91;;;6.95;67.74
62508;BME280;48556;51.972;4.624;2023-01-29T04:36:29;102878.75;;;6.95;68.41
62508;BME280;48556;51.972;4.624;2023-01-29T04:39:17;102874.63;;;6.76;68.77
62508;BME280;48556;51.972;4.624;2023-01-29T04:42:10;102881.34;;;6.69;69.16
62508;BME280;48556;51.972;4.624;2023-01-29T04:44:47;102870.66;;;6.87;68.84
62508;BME280;48556;51.972;4.624;2023-01-29T04:50:22;102868.38;;;6.72;68.42
62508;BME280;48556;51.972;4.624;2023-01-29T04:52:51;102862.31;;;6.49;69.72
62508;BME280;48556;51.972;4.624;2023-01-29T05:00:32;102853.25;;;6.63;69.50
62508;BME280;48556;51.972;4.624;2023-01-29T05:03:00;102848.63;;;6.56;69.26
62508;BME280;48556;51.972;4.624;2023-01-29T05:05:27;102859.19;;;6.83;68.46
62508;BME280;48556;51.972;4.624;2023-01-29T05:07:56;102849.13;;;6.70;68.88
62508;BME280;48556;51.972;4.624;2023-01-29T05:10:24;102847.19;;;6.89;68.23
62508;BME280;48556;51.972;4.624;2023-01-29T05:13:01;102843.94;;;6.96;67.88
62508;BME280;48556;51.972;4.624;2023-01-29T05:15:40;102841.28;;;6.70;68.19
62508;BME280;48556;51.972;4.624;2023-01-29T05:18:08;102847.34;;;6.69;68.24
62508;BME280;48556;51.972;4.624;2023-01-29T05:20:41;102845.81;;;6.52;69.08
62508;BME280;48556;51.972;4.624;2023-01-29T05:23:20;102847.63;;;6.53;68.74
62508;BME280;48556;51.972;4.624;2023-01-29T05:25:47;102845.47;;;6.65;68.35
62508;BME280;48556;51.972;4.624;2023-01-29T05:28:13;102844.94;;;6.99;67.74
62508;BME280;48556;51.972;4.624;2023-01-29T05:30:46;102842.69;;;6.60;68.63
62508;BME280;48556;51.972;4.624;2023-01-29T05:35:46;102828.28;;;6.72;68.43
62508;BME280;48556;51.972;4.624;2023-01-29T05:38:12;102830.81;;;6.46;68.80
62508;BME280;48556;51.972;4.624;2023-01-29T05:40:38;102828.25;;;6.96;67.36
62508;BME280;48556;51.972;4.624;2023-01-29T05:43:04;102831.88;;;6.99;66.50
62508;BME280;48556;51.972;4.624;2023-01-29T05:45:31;102836.56;;;7.10;66.57
62508;BME280;48556;51.972;4.624;2023-01-29T05:47:58;102834.06;;;6.63;67.86
62508;BME280;48556;51.972;4.624;2023-01-29T05:50:25;102827.13;;;6.89;68.02
62508;BME280;48556;51.972;4.624;2023-01-29T05:53:01;102826.84;;;7.06;66.38
62508;BME280;48556;51.972;4.624;2023-01-29T05:55:27;102826.44;;;7.19;65.73
62508;BME280;48556;51.972;4.624;2023-01-29T05:57:56;102829.19;;;6.74;67.21
62508;BME280;48556;51.972;4.624;2023-01-29T06:00:22;102826.41;;;6.93;66.77
62508;BME280;48556;51.972;4.624;2023-01-29T06:02:48;102831.97;;;7.03;67.02
62508;BME280;48556;51.972;4.624;2023-01-29T06:05:13;102829.88;;;7.18;66.06
62508;BME280;48556;51.972;4.624;2023-01-29T06:07:39;102818.09;;;7.05;66.48
62508;BME280;48556;51.972;4.624;2023-01-29T06:10:14;102831.63;;;6.67;67.94
62508;BME280;48556;51.972;4.624;2023-01-29T06:12:41;102821.06;;;6.90;66.93
62508;BME280;48556;51.972;4.624;2023-01-29T06:15:07;102826.81;;;6.80;67.63
62508;BME280;48556;51.972;4.624;2023-01-29T06:17:33;102824.91;;;7.00;67.29
62508;BME280;48556;51.972;4.624;2023-01-29T06:19:59;102821.31;;;6.72;67.65
62508;BME280;48556;51.972;4.624;2023-01-29T06:22:24;102818.88;;;6.77;67.48
62508;BME280;48556;51.972;4.624;2023-01-29T06:24:50;102813.22;;;6.64;68.25
62508;BME280;48556;51.972;4.624;2023-01-29T06:27:15;102808.56;;;6.81;67.89
62508;BME280;48556;51.972;4.624;2023-01-29T06:29:41;102806.22;;;6.89;68.15
62508;BME280;48556;51.972;4.624;2023-01-29T06:32:06;102807.78;;;6.84;67.45
62508;BME280;48556;51.972;4.624;2023-01-29T06:34:32;102807.94;;;7.14;66.77
62508;BME280;48556;51.972;4.624;2023-01-29T06:36:58;102793.75;;;6.82;67.68
62508;BME280;48556;51.972;4.624;2023-01-29T06:39:23;102794.72;;;6.84;68.04
62508;BME280;48556;51.972;4.624;2023-01-29T06:41:49;102794.25;;;6.70;69.28
62508;BME280;48556;51.972;4.624;2023-01-29T06:44:14;102798.56;;;6.45;69.87
62508;BME280;48556;51.972;4.624;2023-01-29T06:46:40;102789.66;;;6.40;70.14
62508;BME280;48556;51.972;4.624;2023-01-29T06:49:05;102799.94;;;6.60;69.28
62508;BME280;48556;51.972;4.624;2023-01-29T06:51:31;102808.59;;;6.57;69.63
62508;BME280;48556;51.972;4.624;2023-01-29T06:53:57;102806.63;;;6.52;69.74
62508;BME280;48556;51.972;4.624;2023-01-29T06:56:23;102803.03;;;6.48;70.04
62508;BME280;48556;51.972;4.624;2023-01-29T06:58:49;102798.66;;;6.97;68.55
62508;BME280;48556;51.972;4.624;2023-01-29T07:01:14;102795.75;;;6.39;69.83
62508;BME280;48556;51.972;4.624;2023-01-29T07:03:40;102796.78;;;6.44;69.94
62508;BME280;48556;51.972;4.624;2023-01-29T07:06:07;102792.78;;;6.30;70.72
62508;BME280;48556;51.972;4.624;2023-01-29T07:08:39;102790.22;;;6.31;70.79
62508;BME280;48556;51.972;4.624;2023-01-29T07:11:06;102792.56;;;6.72;69.08
62508;BME280;48556;51.972;4.624;2023-01-29T07:13:32;102806.72;;;6.79;68.73
62508;BME280;48556;51.972;4.624;2023-01-29T07:15:59;102804.34;;;7.11;67.46
62508;BME280;48556;51.972;4.624;2023-01-29T07:18:27;102803.44;;;6.84;68.21
62508;BME280;48556;51.972;4.624;2023-01-29T07:20:53;102803.34;;;6.81;67.46
62508;BME280;48556;51.972;4.624;2023-01-29T07:23:19;102788.09;;;6.94;67.65
62508;BME280;48556;51.972;4.624;2023-01-29T07:25:47;102793.13;;;6.89;67.60
62508;BME280;48556;51.972;4.624;2023-01-29T07:28:16;102790.47;;;6.62;68.95
62508;BME280;48556;51.972;4.624;2023-01-29T07:30:46;102794.06;;;6.41;69.48
62508;BME280;48556;51.972;4.624;2023-01-29T07:33:11;102797.75;;;6.46;69.35
62508;BME280;48556;51.972;4.624;2023-01-29T07:35:42;102803.38;;;6.57;69.29
62508;BME280;48556;51.972;4.624;2023-01-29T07:38:09;102791.34;;;6.62;69.44
62508;BME280;48556;51.972;4.624;2023-01-29T07:40:35;102800.56;;;6.77;68.66
62508;BME280;48556;51.972;4.624;2023-01-29T07:43:03;102805.19;;;6.84;68.59
62508;BME280;48556;51.972;4.624;2023-01-29T07:45:30;102804.59;;;6.67;69.13
62508;BME280;48556;51.972;4.624;2023-01-29T07:47:57;102803.03;;;6.48;69.85
62508;BME280;48556;51.972;4.624;2023-01-29T07:50:25;102788.88;;;6.43;70.42
62508;BME280;48556;51.972;4.624;2023-01-29T07:52:53;102782.78;;;6.42;70.26
62508;BME280;48556;51.972;4.624;2023-01-29T07:55:19;102790.00;;;6.25;71.04
62508;BME280;48556;51.972;4.624;2023-01-29T07:57:45;102789.22;;;6.28;71.24
62508;BME280;48556;51.972;4.624;2023-01-29T08:00:11;102788.06;;;6.44;70.36
62508;BME280;48556;51.972;4.624;2023-01-29T08:02:38;102776.78;;;6.45;70.57
62508;BME280;48556;51.972;4.624;2023-01-29T08:05:04;102783.78;;;6.22;71.54
62508;BME280;48556;51.972;4.624;2023-01-29T08:07:29;102777.66;;;6.21;71.27
62508;BME280;48556;51.972;4.624;2023-01-29T08:09:55;102778.84;;;6.29;71.31
62508;BME280;48556;51.972;4.624;2023-01-29T08:12:20;102779.50;;;6.48;70.56
62508;BME280;48556;51.972;4.624;2023-01-29T08:14:49;102777.78;;;6.48;70.79
62508;BME280;48556;51.972;4.624;2023-01-29T08:17:15;102774.38;;;6.27;71.21
62508;BME280;48556;51.972;4.624;2023-01-29T08:19:41;102769.63;;;6.39;70.51
62508;BME280;48556;51.972;4.624;2023-01-29T08:22:06;102775.22;;;6.50;70.45
62508;BME280;48556;51.972;4.624;2023-01-29T08:24:32;102765.78;;;6.54;70.50
62508;BME280;48556;51.972;4.624;2023-01-29T08:26:59;102763.47;;;6.39;70.77
62508;BME280;48556;51.972;4.624;2023-01-29T08:29:25;102750.97;;;6.30;71.21
62508;BME280;48556;51.972;4.624;2023-01-29T08:31:51;102757.78;;;6.49;70.26
62508;BME280;48556;51.972;4.624;2023-01-29T08:34:17;102755.44;;;6.32;70.66
62508;BME280;48556;51.972;4.624;2023-01-29T08:36:47;102759.09;;;6.38;70.73
62508;BME280;48556;51.972;4.624;2023-01-29T08:39:13;102757.19;;;6.09;71.58
62508;BME280;48556;51.972;4.624;2023-01-29T08:41:38;102749.94;;;6.49;70.44
62508;BME280;48556;51.972;4.624;2023-01-29T08:44:04;102747.88;;;6.16;71.43
62508;BME280;48556;51.972;4.624;2023-01-29T08:46:30;102745.91;;;6.59;70.44
62508;BME280;48556;51.972;4.624;2023-01-29T08:48:56;102752.00;;;6.33;70.50
62508;BME280;48556;51.972;4.624;2023-01-29T08:51:24;102740.78;;;6.62;70.16
62508;BME280;48556;51.972;4.624;2023-01-29T08:53:50;102734.25;;;6.49;70.76
62508;BME280;48556;51.972;4.624;2023-01-29T08:56:15;102734.13;;;6.46;70.33
62508;BME280;48556;51.972;4.624;2023-01-29T08:58:42;102747.91;;;6.66;69.51
62508;BME280;48556;51.972;4.624;2023-01-29T09:01:11;102747.53;;;6.55;70.97
62508;BME280;48556;51.972;4.624;2023-01-29T09:03:39;102745.63;;;6.51;70.49
62508;BME280;48556;51.972;4.624;2023-01-29T09:06:11;102746.47;;;6.50;70.84
62508;BME280;48556;51.972;4.624;2023-01-29T09:08:38;102730.34;;;6.38;71.51
62508;BME280;48556;51.972;4.624;2023-01-29T09:11:03;102732.13;;;6.39;71.59
62508;BME280;48556;51.972;4.624;2023-01-29T09:13:29;102732.19;;;6.40;71.50
62508;BME280;48556;51.972;4.624;2023-01-29T09:15:58;102739.72;;;6.08;72.79
62508;BME280;48556;51.972;4.624;2023-01-29T09:18:24;102741.97;;;6.46;71.37
62508;BME280;48556;51.972;4.624;2023-01-29T09:20:49;102738.03;;;6.57;71.53
62508;BME280;48556;51.972;4.624;2023-01-29T09:23:15;102744.75;;;6.76;70.44
62508;BME280;48556;51.972;4.624;2023-01-29T09:25:42;102733.28;;;6.47;71.05
62508;BME280;48556;51.972;4.624;2023-01-29T09:28:08;102736.06;;;6.52;71.37
62508;BME280;48556;51.972;4.624;2023-01-29T09:30:33;102734.19;;;6.47;71.09
62508;BME280;48556;51.972;4.624;2023-01-29T09:33:03;102733.38;;;6.74;70.74
62508;BME280;48556;51.972;4.624;2023-01-29T09:35:29;102735.72;;;6.66;70.90
62508;BME280;48556;51.972;4.624;2023-01-29T09:37:59;102731.75;;;6.52;71.48
62508;BME280;48556;51.972;4.624;2023-01-29T09:43:16;102743.16;;;6.80;70.79
62508;BME280;48556;51.972;4.624;2023-01-29T09:45:58;102736.03;;;6.76;70.93
62508;BME280;48556;51.972;4.624;2023-01-29T09:48:32;102737.94;;;6.80;70.28
62508;BME280;48556;51.972;4.624;2023-01-29T09:51:03;102735.88;;;6.71;70.57
62508;BME280;48556;51.972;4.624;2023-01-29T09:56:13;102730.97;;;6.55;71.20
62508;BME280;48556;51.972;4.624;2023-01-29T09:58:42;102728.56;;;6.61;71.44
62508;BME280;48556;51.972;4.624;2023-01-29T10:01:32;102717.13;;;6.57;71.22
62508;BME280;48556;51.972;4.624;2023-01-29T10:07:12;102716.97;;;6.78;70.79
62508;BME280;48556;51.972;4.624;2023-01-29T10:12:37;102708.84;;;6.71;70.72
62508;BME280;48556;51.972;4.624;2023-01-29T10:25:45;102713.25;;;6.72;70.91
62508;BME280;48556;51.972;4.624;2023-01-29T10:28:48;102698.44;;;6.46;71.60
62508;BME280;48556;51.972;4.624;2023-01-29T10:31:23;102702.50;;;6.90;70.64
62508;BME280;48556;51.972;4.624;2023-01-29T10:34:35;102696.78;;;6.74;70.99
62508;BME280;48556;51.972;4.624;2023-01-29T10:36:46;102692.66;;;6.81;71.50
62508;BME280;48556;51.972;4.624;2023-01-29T10:39:17;102699.13;;;6.66;72.17
62508;BME280;48556;51.972;4.624;2023-01-29T10:50:56;102676.75;;;6.75;71.85
62508;BME280;48556;51.972;4.624;2023-01-29T10:56:45;102661.19;;;6.52;72.89
62508;BME280;48556;51.972;4.624;2023-01-29T11:00:08;102666.03;;;6.67;72.28
62508;BME280;48556;51.972;4.624;2023-01-29T11:02:53;102648.78;;;6.46;73.36
62508;BME280;48556;51.972;4.624;2023-01-29T11:08:39;102646.31;;;6.77;72.36
62508;BME280;48556;51.972;4.624;2023-01-29T11:11:16;102647.56;;;6.62;73.05
62508;BME280;48556;51.972;4.624;2023-01-29T11:13:54;102649.22;;;6.86;72.00
62508;BME280;48556;51.972;4.624;2023-01-29T11:16:22;102644.25;;;6.68;72.45
62508;BME280;48556;51.972;4.624;2023-01-29T11:19:15;102646.09;;;6.71;72.88
62508;BME280;48556;51.972;4.624;2023-01-29T11:22:18;102646.66;;;6.60;73.22
62508;BME280;48556;51.972;4.624;2023-01-29T11:24:46;102643.16;;;6.61;73.31
62508;BME280;48556;51.972;4.624;2023-01-29T11:27:46;102643.72;;;6.77;73.37
62508;BME280;48556;51.972;4.624;2023-01-29T11:30:38;102638.06;;;6.64;73.86
62508;BME280;48556;51.972;4.624;2023-01-29T11:33:31;102647.63;;;6.64;73.59
62508;BME280;48556;51.972;4.624;2023-01-29T11:35:56;102636.69;;;6.76;73.28
62508;BME280;48556;51.972;4.624;2023-01-29T11:38:29;102647.44;;;6.85;73.10
62508;BME280;48556;51.972;4.624;2023-01-29T11:41:15;102626.25;;;7.05;73.02
62508;BME280;48556;51.972;4.624;2023-01-29T11:43:46;102616.03;;;7.12;71.74
62508;BME280;48556;51.972;4.624;2023-01-29T11:46:43;102606.50;;;6.86;72.24
62508;BME280;48556;51.972;4.624;2023-01-29T11:49:35;102610.31;;;7.24;72.63
62508;BME280;48556;51.972;4.624;2023-01-29T11:52:14;102614.31;;;7.13;71.93
62508;BME280;48556;51.972;4.624;2023-01-29T11:54:49;102611.16;;;7.23;72.08
62508;BME280;48556;51.972;4.624;2023-01-29T11:57:33;102601.22;;;7.13;72.38
62508;BME280;48556;51.972;4.624;2023-01-29T12:03:15;102584.31;;;7.30;72.12
62508;BME280;48556;51.972;4.624;2023-01-29T12:06:22;102574.31;;;7.17;72.31
62508;BME280;48556;51.972;4.624;2023-01-29T12:09:13;102575.06;;;6.84;73.40
62508;BME280;48556;51.972;4.624;2023-01-29T12:11:40;102585.72;;;6.90;73.45
62508;BME280;48556;51.972;4.624;2023-01-29T12:14:26;102560.78;;;6.73;74.60
62508;BME280;48556;51.972;4.624;2023-01-29T12:17:18;102556.56;;;6.78;74.14
62508;BME280;48556;51.972;4.624;2023-01-29T12:20:03;102565.50;;;7.13;72.29
62508;BME280;48556;51.972;4.624;2023-01-29T12:23:13;102551.25;;;7.04;73.17
62508;BME280;48556;51.972;4.624;2023-01-29T12:25:57;102546.19;;;7.10;72.65
62508;BME280;48556;51.972;4.624;2023-01-29T12:36:55;102506.13;;;7.11;72.29
62508;BME280;48556;51.972;4.624;2023-01-29T12:39:24;102506.56;;;7.26;72.40
62508;BME280;48556;51.972;4.624;2023-01-29T12:42:08;102499.41;;;7.19;72.28
62508;BME280;48556;51.972;4.624;2023-01-29T12:44:43;102482.81;;;7.50;71.47
62508;BME280;48556;51.972;4.624;2023-01-29T12:47:40;102478.63;;;7.57;70.50
62508;BME280;48556;51.972;4.624;2023-01-29T12:50:31;102480.66;;;7.67;70.23
62508;BME280;48556;51.972;4.624;2023-01-29T12:52:58;102466.78;;;7.72;70.17
62508;BME280;48556;51.972;4.624;2023-01-29T12:55:45;102471.28;;;8.11;68.40
62508;BME280;48556;51.972;4.624;2023-01-29T13:01:04;102463.13;;;7.65;69.67
62508;BME280;48556;51.972;4.624;2023-01-29T13:06:19;102448.50;;;7.40;71.58
62508;BME280;48556;51.972;4.624;2023-01-29T13:09:29;102438.91;;;7.40;71.86
62508;BME280;48556;51.972;4.624;2023-01-29T13:12:03;102431.09;;;7.42;71.55
62508;BME280;48556;51.972;4.624;2023-01-29T13:15:01;102422.84;;;7.26;71.52
62508;BME280;48556;51.972;4.624;2023-01-29T13:18:13;102406.84;;;7.15;71.96
62508;BME280;48556;51.972;4.624;2023-01-29T13:20:43;102409.25;;;7.40;72.40
62508;BME280;48556;51.972;4.624;2023-01-29T13:23:35;102402.63;;;7.21;71.77
62508;BME280;48556;51.972;4.624;2023-01-29T13:26:04;102399.56;;;7.35;71.86
62508;BME280;48556;51.972;4.624;2023-01-29T13:28:31;102389.56;;;7.21;71.83
62508;BME280;48556;51.972;4.624;2023-01-29T13:36:36;102374.34;;;7.39;71.30
62508;BME280;48556;51.972;4.624;2023-01-29T13:39:30;102370.78;;;7.35;71.68
62508;BME280;48556;51.972;4.624;2023-01-29T13:42:37;102370.78;;;7.04;72.70
62508;BME280;48556;51.972;4.624;2023-01-29T13:45:07;102363.81;;;7.38;72.52
62508;BME280;48556;51.972;4.624;2023-01-29T13:47:36;102371.22;;;7.19;72.81
62508;BME280;48556;51.972;4.624;2023-01-29T13:50:23;102366.38;;;7.69;71.76
62508;BME280;48556;51.972;4.624;2023-01-29T13:52:59;102360.13;;;7.64;71.02
62508;BME280;48556;51.972;4.624;2023-01-29T13:55:53;102369.06;;;7.73;70.93
62508;BME280;48556;51.972;4.624;2023-01-29T14:01:00;102364.19;;;7.88;70.34
62508;BME280;48556;51.972;4.624;2023-01-29T14:05:57;102354.19;;;7.72;70.74
62508;BME280;48556;51.972;4.624;2023-01-29T14:13:41;102344.88;;;7.83;70.95
62508;BME280;48556;51.972;4.624;2023-01-29T14:21:29;102343.16;;;7.85;71.47
62508;BME280;48556;51.972;4.624;2023-01-29T14:24:17;102330.38;;;8.38;70.09
62508;BME280;48556;51.972;4.624;2023-01-29T14:26:47;102329.66;;;8.04;70.30
62508;BME280;48556;51.972;4.624;2023-01-29T14:29:17;102316.91;;;7.82;71.88
62508;BME280;48556;51.972;4.624;2023-01-29T14:31:58;102318.56;;;7.78;72.04
62508;BME280;48556;51.972;4.624;2023-01-29T14:34:44;102321.38;;;7.86;71.92
62508;BME280;48556;51.972;4.624;2023-01-29T14:39:50;102333.75;;;7.55;73.40
62508;BME280;48556;51.972;4.624;2023-01-29T14:42:35;102323.63;;;7.34;74.76
62508;BME280;48556;51.972;4.624;2023-01-29T14:47:56;102312.56;;;7.46;74.39
62508;BME280;48556;51.972;4.624;2023-01-29T14:53:19;102322.38;;;7.55;74.45
62508;BME280;48556;51.972;4.624;2023-01-29T14:59:20;102301.03;;;7.38;75.14
62508;BME280;48556;51.972;4.624;2023-01-29T15:02:01;102311.22;;;6.93;76.64
62508;BME280;48556;51.972;4.624;2023-01-29T15:04:49;102297.81;;;7.14;76.63
62508;BME280;48556;51.972;4.624;2023-01-29T15:07:40;102278.84;;;7.22;76.24
62508;BME280;48556;51.972;4.624;2023-01-29T15:10:18;102290.41;;;6.96;77.51
62508;BME280;48556;51.972;4.624;2023-01-29T15:16:04;102290.63;;;6.72;79.11
62508;BME280;48556;51.972;4.624;2023-01-29T15:18:39;102295.66;;;6.64;79.13
62508;BME280;48556;51.972;4.624;2023-01-29T15:21:15;102299.06;;;7.29;77.11
62508;BME280;48556;51.972;4.624;2023-01-29T15:23:42;102287.09;;;7.04;77.83
62508;BME280;48556;51.972;4.624;2023-01-29T15:26:20;102296.13;;;6.51;79.55
62508;BME280;48556;51.972;4.624;2023-01-29T15:28:54;102286.53;;;6.82;80.13
62508;BME280;48556;51.972;4.624;2023-01-29T15:31:20;102285.00;;;6.90;79.92
62508;BME280;48556;51.972;4.624;2023-01-29T15:33:47;102277.91;;;6.86;80.90
62508;BME280;48556;51.972;4.624;2023-01-29T15:38:46;102277.44;;;6.67;82.37
62508;BME280;48556;51.972;4.624;2023-01-29T15:41:21;102276.31;;;6.91;81.97
62508;BME280;48556;51.972;4.624;2023-01-29T15:43:54;102279.78;;;6.90;82.33